Time;durP1;ratioP1;P1;durP2;ratioP2;P2;SDS_P1;SDS_P2;PMS_P1;PMS_P2;Temp;Humidity;BMP_temperature;BMP_pressure;BME280_temperature;BME280_humidity;BME280_pressure;Samples;Min_cycle;Max_cycle;Signal;HPM_P1;HPM_P2
2021/12/08 00:02:25;;;;;;;;;;;;;;;;;;5064640;28;20315;-71
2021/12/08 00:04:56;;;;;;;;;;;;;;;;;;5066362;28;19924;-71
2021/12/08 00:07:24;;;;;;;;;;;;;;;;;;5057383;28;19928;-71
2021/12/08 00:10:40;;;;;;;;;;;;;;;;;;5066185;28;19925;-72
2021/12/08 00:13:19;;;;;;;;;;;;;;;;;;5065363;28;19929;-71
2021/12/08 00:15:51;;;;;;;;;;;;;;;;;;5059858;28;19932;-71
2021/12/08 00:18:26;;;;;;;;;;;;;;;;;;5064642;28;19939;-71
2021/12/08 00:20:56;;;;;;;;;;;;;;;;;;5063235;28;19931;-71
2021/12/08 00:23:28;;;;;;;;;;;;;;;;;;5062116;28;19932;-71
2021/12/08 00:26:11;;;;;;;;;;;;;;;;;;5060482;28;19929;-71
2021/12/08 00:28:44;;;;;;;;;;;;;;;;;;5063232;28;19924;-71
2021/12/08 00:31:12;;;;;;;;;;;;;;;;;;5064691;28;20005;-71
2021/12/08 00:33:46;;;;;;;;;;;;;;;;;;5064461;28;19925;-71
2021/12/08 00:36:17;;;;;;;;;;;;;;;;;;5059340;28;19940;-72
2021/12/08 00:38:46;;;;;;;;;;;;;;;;;;5065801;28;19943;-71
2021/12/08 00:41:17;;;;;;;;;;;;;;;;;;5065715;28;19928;-71
2021/12/08 00:43:44;;;;;;;;;;;;;;;;;;5065361;28;19985;-71
2021/12/08 00:46:16;;;;;;;;;;;;;;;;;;5058077;28;19937;-71
2021/12/08 00:48:49;;;;;;;;;;;;;;;;;;5064824;28;19924;-71
2021/12/08 00:51:20;;;;;;;;;;;;;;;;;;5065699;28;20104;-71
2021/12/08 00:53:50;;;;;;;;;;;;;;;;;;5065606;28;19936;-71
2021/12/08 00:56:19;;;;;;;;;;;;;;;;;;5055502;28;20476;-71
2021/12/08 00:58:51;;;;;;;;;;;;;;;;;;5061369;28;19924;-71
2021/12/08 01:01:34;;;;;;;;;;;;;;;;;;5063440;28;19936;-72
2021/12/08 01:04:07;;;;;;;;;;;;;;;;;;5062403;28;19924;-71
2021/12/08 01:06:41;;;;;;;;;;;;;;;;;;5064486;28;20546;-71
2021/12/08 01:09:15;;;;;;;;;;;;;;;;;;5065490;28;19928;-71
2021/12/08 01:11:46;;;;;;;;;;;;;;;;;;5063145;28;19985;-70
2021/12/08 01:14:21;;;;;;;;;;;;;;;;;;5064908;28;20398;-71
2021/12/08 01:16:52;;;;;;;;;;;;;;;;;;5064757;28;19932;-71
2021/12/08 01:19:23;;;;;;;;;;;;;;;;;;5060970;28;19933;-71
2021/12/08 01:21:51;;;;;;;;;;;;;;;;;;5043663;28;19935;-71
2021/12/08 01:24:20;;;;;;;;;;;;;;;;;;5043328;28;19925;-71
2021/12/08 01:26:51;;;;;;;;;;;;;;;;;;5064569;28;19971;-71
2021/12/08 01:29:22;;;;;;;;;;;;;;;;;;5064756;28;19933;-71
2021/12/08 01:31:52;;;;;;;;;;;;;;;;;;5062580;28;20532;-71
2021/12/08 01:34:24;;;;;;;;;;;;;;;;;;5064023;28;19932;-71
2021/12/08 01:36:53;;;;;;;;;;;;;;;;;;5065583;28;19932;-71
2021/12/08 01:39:22;;;;;;;;;;;;;;;;;;5064600;28;20340;-71
2021/12/08 01:41:53;;;;;;;;;;;;;;;;;;5064390;28;20345;-71
2021/12/08 01:47:12;;;;;;;;;;;;;;;;;;5056732;28;20427;-71
2021/12/08 01:49:46;;;;;;;;;;;;;;;;;;5063937;28;19935;-71
2021/12/08 01:52:13;;;;;;;;;;;;;;;;;;5061827;28;19933;-71
2021/12/08 01:54:45;;;;;;;;;;;;;;;;;;5065085;28;19924;-71
2021/12/08 01:57:16;;;;;;;;;;;;;;;;;;5066917;28;19989;-71
2021/12/08 01:59:50;;;;;;;;;;;;;;;;;;5061110;28;20015;-71
2021/12/08 02:02:17;;;;;;;;;;;;;;;;;;5061657;28;19925;-71
2021/12/08 02:04:48;;;;;;;;;;;;;;;;;;5058621;28;19967;-71
2021/12/08 02:07:17;;;;;;;;;;;;;;;;;;5064215;28;19940;-71
2021/12/08 02:09:59;;;;;;;;;;;;;;;;;;5056886;28;19924;-71
2021/12/08 02:12:30;;;;;;;;;;;;;;;;;;5066179;28;19981;-71
2021/12/08 02:15:00;;;;;;;;;;;;;;;;;;5064073;28;19928;-71
2021/12/08 02:17:29;;;;;;;;;;;;;;;;;;5065809;28;20391;-71
2021/12/08 02:20:00;;;;;;;;;;;;;;;;;;5065967;28;20258;-71
2021/12/08 02:22:28;;;;;;;;;;;;;;;;;;5063528;28;19932;-71
2021/12/08 02:24:57;;;;;;;;;;;;;;;;;;5068386;28;20280;-71
2021/12/08 02:27:26;;;;;;;;;;;;;;;;;;5063643;28;19935;-71
2021/12/08 02:30:00;;;;;;;;;;;;;;;;;;5065779;28;19933;-71
2021/12/08 02:47:06;;;;;;;;;;;;;;;;;;5012292;28;19987;-70
2021/12/08 02:49:39;;;;;;;;;;;;;;;;;;5003175;28;19940;-71
2021/12/08 02:52:08;;;;;;;;;;;;;;;;;;5012397;28;19925;-71
2021/12/08 02:54:37;;;;;;;;;;;;;;;;;;5059422;28;19933;-71
2021/12/08 02:57:08;;;;;;;;;;;;;;;;;;5067829;28;19998;-71
2021/12/08 02:59:35;;;;;;;;;;;;;;;;;;5064395;28;19985;-71
2021/12/08 03:02:07;;;;;;;;;;;;;;;;;;5065577;28;20339;-71
2021/12/08 03:04:38;;;;;;;;;;;;;;;;;;5068443;28;19935;-71
2021/12/08 03:07:09;;;;;;;;;;;;;;;;;;5066226;28;19932;-71
2021/12/08 03:09:40;;;;;;;;;;;;;;;;;;5067233;28;19932;-70
2021/12/08 03:12:10;;;;;;;;;;;;;;;;;;5063142;28;19931;-71
2021/12/08 03:14:40;;;;;;;;;;;;;;;;;;5067634;28;19932;-71
2021/12/08 03:17:09;;;;;;;;;;;;;;;;;;5066439;28;19935;-71
2021/12/08 03:19:38;;;;;;;;;;;;;;;;;;5067127;28;19929;-71
2021/12/08 03:22:11;;;;;;;;;;;;;;;;;;5060846;28;19924;-71
2021/12/08 03:24:45;;;;;;;;;;;;;;;;;;5067912;28;20362;-71
2021/12/08 03:27:19;;;;;;;;;;;;;;;;;;5066497;28;19924;-71
2021/12/08 03:30:17;;;;;;;;;;;;;;;;;;5065108;28;19925;-71
2021/12/08 03:32:55;;;;;;;;;;;;;;;;;;5067383;28;19935;-71
2021/12/08 03:35:25;;;;;;;;;;;;;;;;;;5080245;28;19924;-71
2021/12/08 03:37:57;;;;;;;;;;;;;;;;;;5081867;28;19925;-71
2021/12/08 03:40:26;;;;;;;;;;;;;;;;;;5086952;28;19947;-71
2021/12/08 03:42:56;;;;;;;;;;;;;;;;;;5082987;28;19931;-71
2021/12/08 03:45:29;;;;;;;;;;;;;;;;;;5085471;28;19928;-71
2021/12/08 03:48:02;;;;;;;;;;;;;;;;;;5073474;28;20456;-71
2021/12/08 03:50:33;;;;;;;;;;;;;;;;;;5086748;28;19924;-71
2021/12/08 03:53:05;;;;;;;;;;;;;;;;;;5077948;28;19989;-70
2021/12/08 03:55:39;;;;;;;;;;;;;;;;;;5076704;28;19934;-71
2021/12/08 03:58:10;;;;;;;;;;;;;;;;;;5062079;28;19954;-71
2021/12/08 04:00:41;;;;;;;;;;;;;;;;;;5083645;28;19932;-71
2021/12/08 04:03:12;;;;;;;;;;;;;;;;;;5079700;28;20831;-71
2021/12/08 04:05:59;;;;;;;;;;;;;;;;;;5071442;28;19924;-70
2021/12/08 04:08:54;;;;;;;;;;;;;;;;;;5073857;28;19935;-70
2021/12/08 04:11:20;;;;;;;;;;;;;;;;;;5078013;28;19924;-70
2021/12/08 04:13:52;;;;;;;;;;;;;;;;;;5085990;28;20262;-70
2021/12/08 04:16:23;;;;;;;;;;;;;;;;;;5084190;28;19925;-70
2021/12/08 04:18:57;;;;;;;;;;;;;;;;;;5076705;28;19979;-72
2021/12/08 04:21:29;;;;;;;;;;;;;;;;;;5087595;28;19981;-72
2021/12/08 04:24:01;;;;;;;;;;;;;;;;;;5067942;28;20497;-71
2021/12/08 04:26:30;;;;;;;;;;;;;;;;;;5087111;28;19930;-71
2021/12/08 04:29:01;;;;;;;;;;;;;;;;;;5087624;28;19935;-72
2021/12/08 04:31:32;;;;;;;;;;;;;;;;;;5087909;28;19928;-72
2021/12/08 04:34:03;;;;;;;;;;;;;;;;;;5077524;28;19935;-71
2021/12/08 04:36:38;;;;;;;;;;;;;;;;;;5096198;28;19928;-72
2021/12/08 04:39:12;;;;;;;;;;;;;;;;;;5082913;28;19928;-71
2021/12/08 04:41:49;;;;;;;;;;;;;;;;;;5083357;28;20020;-71
2021/12/08 04:52:30;;;;;;;;;;;;;;;;;;5083257;28;19938;-71
2021/12/08 05:01:10;;;;;;;;;;;;;;;;;;5085711;28;19931;-71
2021/12/08 05:06:50;;;;;;;;;;;;;;;;;;5085835;28;19957;-71
2021/12/08 05:09:18;;;;;;;;;;;;;;;;;;5071157;28;20453;-71
2021/12/08 05:11:48;;;;;;;;;;;;;;;;;;5075494;28;19933;-70
2021/12/08 05:14:19;;;;;;;;;;;;;;;;;;5083015;28;20421;-71
2021/12/08 05:16:49;;;;;;;;;;;;;;;;;;5084272;28;20401;-72
2021/12/08 05:19:20;;;;;;;;;;;;;;;;;;5084902;28;19957;-71
2021/12/08 05:21:50;;;;;;;;;;;;;;;;;;5082960;28;19928;-71
2021/12/08 05:24:20;;;;;;;;;;;;;;;;;;5086013;28;19923;-70
2021/12/08 05:26:52;;;;;;;;;;;;;;;;;;5084101;28;19946;-71
2021/12/08 05:29:21;;;;;;;;;;;;;;;;;;5085342;28;20000;-71
2021/12/08 05:31:55;;;;;;;;;;;;;;;;;;5080386;28;19928;-71
2021/12/08 05:34:27;;;;;;;;;;;;;;;;;;5077888;28;19932;-70
2021/12/08 05:36:57;;;;;;;;;;;;;;;;;;5082975;28;19951;-71
2021/12/08 05:39:27;;;;;;;;;;;;;;;;;;5082628;28;20019;-71
2021/12/08 05:41:54;;;;;;;;;;;;;;;;;;5078661;28;19932;-71
2021/12/08 05:44:25;;;;;;;;;;;;;;;;;;5066841;28;20345;-71
2021/12/08 05:46:55;;;;;;;;;;;;;;;;;;5083693;28;19924;-71
2021/12/08 05:49:27;;;;;;;;;;;;;;;;;;5086423;28;19928;-71
2021/12/08 05:51:56;;;;;;;;;;;;;;;;;;5088132;28;19924;-71
2021/12/08 05:54:30;;;;;;;;;;;;;;;;;;5089066;28;19924;-71
2021/12/08 05:57:03;;;;;;;;;;;;;;;;;;5089536;28;19924;-71
2021/12/08 05:59:34;;;;;;;;;;;;;;;;;;5080400;28;19932;-71
2021/12/08 06:02:04;;;;;;;;;;;;;;;;;;5087205;28;19928;-71
2021/12/08 06:04:33;;;;;;;;;;;;;;;;;;5086984;28;19923;-70
2021/12/08 06:07:02;;;;;;;;;;;;;;;;;;5087312;28;19932;-72
2021/12/08 06:09:33;;;;;;;;;;;;;;;;;;5078477;28;19932;-71
2021/12/08 06:12:02;;;;;;;;;;;;;;;;;;5081597;28;19924;-71
2021/12/08 06:14:33;;;;;;;;;;;;;;;;;;5085825;28;19935;-71
2021/12/08 06:17:14;;;;;;;;;;;;;;;;;;5087385;28;20040;-72
2021/12/08 06:19:46;;;;;;;;;;;;;;;;;;5085667;28;20254;-71
2021/12/08 06:22:18;;;;;;;;;;;;;;;;;;5084204;28;19935;-70
2021/12/08 06:24:45;;;;;;;;;;;;;;;;;;5085891;28;19939;-71
2021/12/08 06:27:14;;;;;;;;;;;;;;;;;;5082815;28;19924;-71
2021/12/08 06:29:45;;;;;;;;;;;;;;;;;;5088780;28;19932;-71
2021/12/08 06:32:12;;;;;;;;;;;;;;;;;;5071787;28;19924;-71
2021/12/08 06:34:43;;;;;;;;;;;;;;;;;;5083640;28;19928;-71
2021/12/08 06:37:15;;;;;;;;;;;;;;;;;;5087472;28;20559;-71
2021/12/08 06:39:49;;;;;;;;;;;;;;;;;;5086174;28;20424;-71
2021/12/08 06:42:21;;;;;;;;;;;;;;;;;;5086105;28;19927;-71
2021/12/08 06:44:50;;;;;;;;;;;;;;;;;;5084523;28;19932;-71
2021/12/08 06:47:17;;;;;;;;;;;;;;;;;;5083255;28;19928;-71
2021/12/08 06:49:50;;;;;;;;;;;;;;;;;;5085420;28;19981;-71
2021/12/08 06:52:19;;;;;;;;;;;;;;;;;;5087764;28;19924;-68
2021/12/08 06:54:50;;;;;;;;;;;;;;;;;;5086514;28;19924;-71
2021/12/08 06:57:20;;;;;;;;;;;;;;;;;;5085971;28;19976;-71
2021/12/08 06:59:59;;;;;;;;;;;;;;;;;;5085411;28;19924;-71
2021/12/08 07:05:27;;;;;;;;;;;;;;;;;;5081850;28;19925;-70
2021/12/08 07:07:58;;;;;;;;;;;;;;;;;;5085525;28;19927;-70
2021/12/08 07:10:27;;;;;;;;;;;;;;;;;;5077105;28;19924;-70
2021/12/08 07:13:01;;;;;;;;;;;;;;;;;;5086475;28;20235;-70
2021/12/08 07:15:31;;;;;;;;;;;;;;;;;;5085696;28;19932;-70
2021/12/08 07:18:02;;;;;;;;;;;;;;;;;;5084063;28;20375;-70
2021/12/08 07:20:46;;;;;;;;;;;;;;;;;;5093598;28;19948;-67
2021/12/08 07:23:38;;;;;;;;;;;;;;;;;;5070686;28;19924;-66
2021/12/08 07:26:07;;;;;;;;;;;;;;;;;;5098416;28;19982;-67
2021/12/08 07:28:51;;;;;;;;;;;;;;;;;;5085605;28;19990;-66
2021/12/08 07:31:20;;;;;;;;;;;;;;;;;;5090630;28;20300;-68
2021/12/08 07:33:54;;;;;;;;;;;;;;;;;;5065268;28;20525;-67
2021/12/08 07:36:22;;;;;;;;;;;;;;;;;;5090623;28;19976;-68
2021/12/08 07:38:53;;;;;;;;;;;;;;;;;;5082200;28;19928;-69
2021/12/08 07:41:30;;;;;;;;;;;;;;;;;;5085646;28;19935;-69
2021/12/08 07:44:00;;;;;;;;;;;;;;;;;;5081353;28;19924;-69
2021/12/08 07:46:30;;;;;;;;;;;;;;;;;;5083852;28;20349;-70
2021/12/08 07:49:00;;;;;;;;;;;;;;;;;;5070624;28;20473;-70
2021/12/08 07:51:31;;;;;;;;;;;;;;;;;;5068279;28;19931;-66
2021/12/08 07:53:59;;;;;;;;;;;;;;;;;;5084659;28;20316;-65
2021/12/08 07:56:29;;;;;;;;;;;;;;;;;;5083591;28;19934;-69
2021/12/08 07:59:02;;;;;;;;;;;;;;;;;;5076144;28;19928;-67
2021/12/08 08:01:32;;;;;;;;;;;;;;;;;;5085234;28;19924;-71
2021/12/08 08:04:03;;;;;;;;;;;;;;;;;;5082876;28;19992;-71
2021/12/08 08:06:34;;;;;;;;;;;;;;;;;;5085940;28;20019;-71
2021/12/08 08:09:02;;;;;;;;;;;;;;;;;;5084077;28;19924;-72
2021/12/08 08:11:33;;;;;;;;;;;;;;;;;;5083965;28;19924;-69
2021/12/08 08:14:04;;;;;;;;;;;;;;;;;;5077972;28;19924;-69
2021/12/08 08:16:36;;;;;;;;;;;;;;;;;;5084699;28;19955;-68
2021/12/08 08:19:12;;;;;;;;;;;;;;;;;;5084268;28;19923;-73
2021/12/08 08:21:42;;;;;;;;;;;;;;;;;;5081916;28;19924;-69
2021/12/08 08:24:15;;;;;;;;;;;;;;;;;;5076315;28;19932;-70
2021/12/08 08:26:59;;;;;;;;;;;;;;;;;;5078390;28;20024;-73
2021/12/08 08:29:28;;;;;;;;;;;;;;;;;;5081247;28;19932;-72
2021/12/08 08:32:02;;;;;;;;;;;;;;;;;;5077883;28;19924;-69
2021/12/08 08:34:34;;;;;;;;;;;;;;;;;;5074131;28;20338;-72
2021/12/08 08:37:07;;;;;;;;;;;;;;;;;;5073759;28;19925;-71
2021/12/08 08:39:37;;;;;;;;;;;;;;;;;;5074851;28;19969;-71
2021/12/08 08:42:07;;;;;;;;;;;;;;;;;;5080515;28;20057;-70
2021/12/08 08:44:38;;;;;;;;;;;;;;;;;;5082814;28;19987;-70
2021/12/08 08:47:12;;;;;;;;;;;;;;;;;;5081707;28;19928;-71
2021/12/08 08:49:43;;;;;;;;;;;;;;;;;;5079538;28;20684;-71
2021/12/08 08:52:12;;;;;;;;;;;;;;;;;;5079243;28;19934;-71
2021/12/08 08:54:44;;;;;;;;;;;;;;;;;;5086253;28;20546;-72
2021/12/08 08:57:14;;;;;;;;;;;;;;;;;;5079036;28;19927;-69
2021/12/08 08:59:45;;;;;;;;;;;;;;;;;;5083737;28;19932;-70
2021/12/08 09:02:23;;;;;;;;;;;;;;;;;;5085163;28;19928;-70
2021/12/08 09:04:54;;;;;;;;;;;;;;;;;;5083811;28;19928;-72
2021/12/08 09:07:40;;;;;;;;;;;;;;;;;;5076727;28;19934;-70
2021/12/08 09:10:12;;;;;;;;;;;;;;;;;;5080426;28;21685;-69
2021/12/08 09:12:44;;;;;;;;;;;;;;;;;;5072673;28;19939;-68
2021/12/08 09:15:13;;;;;;;;;;;;;;;;;;5066160;28;19932;-69
2021/12/08 09:17:44;;;;;;;;;;;;;;;;;;5074718;28;19935;-70
2021/12/08 09:20:15;;;;;;;;;;;;;;;;;;5063967;28;19931;-70
2021/12/08 09:22:49;;;;;;;;;;;;;;;;;;5086721;28;20233;-69
2021/12/08 09:25:20;;;;;;;;;;;;;;;;;;5080050;28;19928;-68
2021/12/08 09:27:57;;;;;;;;;;;;;;;;;;5086745;28;20380;-68
2021/12/08 09:30:33;;;;;;;;;;;;;;;;;;5081590;28;19932;-67
2021/12/08 09:33:06;;;;;;;;;;;;;;;;;;5070198;28;20429;-71
2021/12/08 09:35:43;;;;;;;;;;;;;;;;;;5082191;28;20360;-72
2021/12/08 09:38:12;;;;;;;;;;;;;;;;;;5079775;28;19934;-69
2021/12/08 09:40:44;;;;;;;;;;;;;;;;;;5087852;28;20364;-69
2021/12/08 09:43:21;;;;;;;;;;;;;;;;;;5089782;28;19939;-71
2021/12/08 09:45:50;;;;;;;;;;;;;;;;;;5079373;28;19980;-70
2021/12/08 09:48:26;;;;;;;;;;;;;;;;;;5083404;28;20516;-67
2021/12/08 09:51:05;;;;;;;;;;;;;;;;;;5086770;28;19927;-68
2021/12/08 09:53:34;;;;;;;;;;;;;;;;;;5081846;28;19926;-69
2021/12/08 09:56:05;;;;;;;;;;;;;;;;;;5080814;28;19924;-70
2021/12/08 09:58:36;;;;;;;;;;;;;;;;;;5082072;28;19976;-68
2021/12/08 10:01:12;;;;;;;;;;;;;;;;;;5080163;28;19954;-67
2021/12/08 10:03:43;;;;;;;;;;;;;;;;;;5084227;28;20014;-67
2021/12/08 10:06:13;;;;;;;;;;;;;;;;;;5080236;28;19932;-67
2021/12/08 10:08:44;;;;;;;;;;;;;;;;;;5081017;28;19935;-71
2021/12/08 10:11:19;;;;;;;;;;;;;;;;;;5082312;28;19924;-70
2021/12/08 10:13:58;;;;;;;;;;;;;;;;;;5064391;28;19936;-69
2021/12/08 10:16:28;;;;;;;;;;;;;;;;;;5085489;28;19928;-70
2021/12/08 10:18:59;;;;;;;;;;;;;;;;;;5083094;28;19924;-70
2021/12/08 10:21:31;;;;;;;;;;;;;;;;;;5082556;28;19932;-70
2021/12/08 10:23:59;;;;;;;;;;;;;;;;;;5078181;28;19953;-70
2021/12/08 10:26:30;;;;;;;;;;;;;;;;;;5082334;28;19932;-68
2021/12/08 10:29:00;;;;;;;;;;;;;;;;;;5068785;28;19935;-68
2021/12/08 10:31:32;;;;;;;;;;;;;;;;;;5076658;28;19924;-67
2021/12/08 10:34:02;;;;;;;;;;;;;;;;;;5077627;28;20542;-68
2021/12/08 10:36:45;;;;;;;;;;;;;;;;;;5083041;28;20028;-68
2021/12/08 10:39:18;;;;;;;;;;;;;;;;;;5081716;28;19932;-69
2021/12/08 10:41:56;;;;;;;;;;;;;;;;;;5086038;28;19943;-70
2021/12/08 10:44:46;;;;;;;;;;;;;;;;;;5068125;28;19947;-71
2021/12/08 10:47:13;;;;;;;;;;;;;;;;;;5083681;28;19924;-71
2021/12/08 10:55:03;;;;;;;;;;;;;;;;;;5080726;28;20337;-68
2021/12/08 10:57:33;;;;;;;;;;;;;;;;;;5085639;28;19924;-68
2021/12/08 11:00:01;;;;;;;;;;;;;;;;;;5085090;28;19935;-68
2021/12/08 11:02:31;;;;;;;;;;;;;;;;;;5083531;28;19932;-69
2021/12/08 11:05:01;;;;;;;;;;;;;;;;;;5084860;28;19969;-71
2021/12/08 11:07:31;;;;;;;;;;;;;;;;;;5087004;28;20284;-68
2021/12/08 11:10:04;;;;;;;;;;;;;;;;;;5083141;28;20538;-68
2021/12/08 11:12:35;;;;;;;;;;;;;;;;;;5086766;28;19924;-68
2021/12/08 11:15:06;;;;;;;;;;;;;;;;;;5085386;28;19924;-68
2021/12/08 11:17:39;;;;;;;;;;;;;;;;;;5089485;28;19968;-66
2021/12/08 11:20:17;;;;;;;;;;;;;;;;;;5083294;28;19936;-67
2021/12/08 11:22:51;;;;;;;;;;;;;;;;;;5086781;28;19924;-68
2021/12/08 11:25:23;;;;;;;;;;;;;;;;;;5081885;28;19931;-68
2021/12/08 11:27:55;;;;;;;;;;;;;;;;;;5086770;28;20406;-68
2021/12/08 11:30:28;;;;;;;;;;;;;;;;;;5084460;28;19928;-68
2021/12/08 11:32:56;;;;;;;;;;;;;;;;;;5085288;28;19934;-68
2021/12/08 11:35:32;;;;;;;;;;;;;;;;;;5085201;28;20336;-68
2021/12/08 11:38:01;;;;;;;;;;;;;;;;;;5082119;28;19924;-68
2021/12/08 11:40:32;;;;;;;;;;;;;;;;;;5086447;28;19928;-67
2021/12/08 11:43:01;;;;;;;;;;;;;;;;;;5085525;28;19924;-67
2021/12/08 11:45:44;;;;;;;;;;;;;;;;;;5086076;28;20014;-67
2021/12/08 11:48:17;;;;;;;;;;;;;;;;;;5080893;28;21021;-68
2021/12/08 11:50:50;;;;;;;;;;;;;;;;;;5083571;28;20377;-68
2021/12/08 11:53:24;;;;;;;;;;;;;;;;;;5086473;28;19967;-68
2021/12/08 11:55:56;;;;;;;;;;;;;;;;;;5083528;28;20257;-70
2021/12/08 11:58:25;;;;;;;;;;;;;;;;;;5080689;28;19928;-67
2021/12/08 12:00:55;;;;;;;;;;;;;;;;;;5080227;28;19924;-68
2021/12/08 12:03:25;;;;;;;;;;;;;;;;;;5085381;28;19967;-68
2021/12/08 12:05:55;;;;;;;;;;;;;;;;;;5082471;28;19924;-69
2021/12/08 12:08:24;;;;;;;;;;;;;;;;;;5083049;28;20833;-69
2021/12/08 12:10:56;;;;;;;;;;;;;;;;;;5084130;28;19938;-69
2021/12/08 12:13:28;;;;;;;;;;;;;;;;;;5081120;28;19961;-70
2021/12/08 12:16:00;;;;;;;;;;;;;;;;;;5082711;28;20362;-71
2021/12/08 12:18:35;;;;;;;;;;;;;;;;;;5084949;28;20415;-71
2021/12/08 12:21:08;;;;;;;;;;;;;;;;;;5083208;28;19931;-70
2021/12/08 12:23:48;;;;;;;;;;;;;;;;;;5086930;28;20042;-72
2021/12/08 12:26:31;;;;;;;;;;;;;;;;;;5084200;28;20007;-70
2021/12/08 12:29:02;;;;;;;;;;;;;;;;;;5083107;28;19935;-72
2021/12/08 12:31:32;;;;;;;;;;;;;;;;;;5081256;28;19932;-69
2021/12/08 12:34:05;;;;;;;;;;;;;;;;;;5082970;28;19924;-71
2021/12/08 12:36:37;;;;;;;;;;;;;;;;;;5077866;28;19931;-68
2021/12/08 12:39:08;;;;;;;;;;;;;;;;;;5077067;28;20357;-67
2021/12/08 12:41:41;;;;;;;;;;;;;;;;;;5084098;28;19924;-67
2021/12/08 12:44:11;;;;;;;;;;;;;;;;;;5087152;28;19928;-65
2021/12/08 12:46:40;;;;;;;;;;;;;;;;;;5086601;28;19924;-67
2021/12/08 12:49:10;;;;;;;;;;;;;;;;;;5080669;28;19931;-67
2021/12/08 12:51:40;;;;;;;;;;;;;;;;;;5082934;28;19953;-69
2021/12/08 12:54:08;;;;;;;;;;;;;;;;;;5078630;28;19934;-69
2021/12/08 12:56:40;;;;;;;;;;;;;;;;;;5085109;28;19928;-69
2021/12/08 12:59:11;;;;;;;;;;;;;;;;;;5082045;28;19957;-66
2021/12/08 13:01:45;;;;;;;;;;;;;;;;;;5080748;28;19970;-68
2021/12/08 13:04:14;;;;;;;;;;;;;;;;;;5084799;28;19980;-67
2021/12/08 13:06:43;;;;;;;;;;;;;;;;;;5085335;28;19931;-67
2021/12/08 13:09:14;;;;;;;;;;;;;;;;;;5081769;28;19948;-67
2021/12/08 13:11:58;;;;;;;;;;;;;;;;;;5082409;28;20273;-70
2021/12/08 13:14:27;;;;;;;;;;;;;;;;;;5084202;28;19924;-70
2021/12/08 13:17:01;;;;;;;;;;;;;;;;;;5074577;28;20230;-70
2021/12/08 13:19:30;;;;;;;;;;;;;;;;;;5081178;28;20130;-70
2021/12/08 13:22:04;;;;;;;;;;;;;;;;;;5075383;28;19929;-65
2021/12/08 13:24:36;;;;;;;;;;;;;;;;;;5079880;28;19924;-65
2021/12/08 13:27:07;;;;;;;;;;;;;;;;;;5077327;28;20223;-69
2021/12/08 13:29:39;;;;;;;;;;;;;;;;;;5082205;28;20369;-69
2021/12/08 13:32:13;;;;;;;;;;;;;;;;;;5077324;28;19924;-69
2021/12/08 13:34:42;;;;;;;;;;;;;;;;;;5078658;28;19934;-70
2021/12/08 13:37:15;;;;;;;;;;;;;;;;;;5083404;28;19924;-69
2021/12/08 13:39:46;;;;;;;;;;;;;;;;;;5081438;28;19924;-69
2021/12/08 13:42:37;;;;;;;;;;;;;;;;;;5079983;28;19924;-66
2021/12/08 13:45:08;;;;;;;;;;;;;;;;;;5084081;28;20000;-66
2021/12/08 13:47:38;;;;;;;;;;;;;;;;;;5083333;28;20311;-67
2021/12/08 13:50:07;;;;;;;;;;;;;;;;;;5080090;28;19924;-68
2021/12/08 13:52:38;;;;;;;;;;;;;;;;;;5075580;28;19928;-69
2021/12/08 13:55:10;;;;;;;;;;;;;;;;;;5085661;28;19975;-67
2021/12/08 13:57:41;;;;;;;;;;;;;;;;;;5083217;28;19962;-66
2021/12/08 14:00:14;;;;;;;;;;;;;;;;;;5076389;28;19928;-68
2021/12/08 14:02:44;;;;;;;;;;;;;;;;;;5065185;28;19939;-69
2021/12/08 14:05:17;;;;;;;;;;;;;;;;;;5064922;28;19940;-68
2021/12/08 14:07:46;;;;;;;;;;;;;;;;;;5078194;28;19935;-69
2021/12/08 14:10:19;;;;;;;;;;;;;;;;;;5077498;28;19940;-66
2021/12/08 14:12:48;;;;;;;;;;;;;;;;;;5085050;28;19928;-65
2021/12/08 14:15:30;;;;;;;;;;;;;;;;;;5088103;28;19928;-65
2021/12/08 14:18:02;;;;;;;;;;;;;;;;;;5084930;28;19989;-65
2021/12/08 14:20:31;;;;;;;;;;;;;;;;;;5086822;28;19928;-68
2021/12/08 14:23:02;;;;;;;;;;;;;;;;;;5067443;28;19924;-69
2021/12/08 14:25:31;;;;;;;;;;;;;;;;;;5084188;28;19977;-69
2021/12/08 14:28:04;;;;;;;;;;;;;;;;;;5084011;28;19932;-69
2021/12/08 14:30:31;;;;;;;;;;;;;;;;;;5087784;28;20369;-69
2021/12/08 14:33:02;;;;;;;;;;;;;;;;;;5085219;28;19924;-69
2021/12/08 14:35:37;;;;;;;;;;;;;;;;;;5082243;28;20606;-69
2021/12/08 14:38:09;;;;;;;;;;;;;;;;;;5082373;28;19980;-69
2021/12/08 14:40:40;;;;;;;;;;;;;;;;;;5083809;28;19932;-69
2021/12/08 14:43:10;;;;;;;;;;;;;;;;;;5084233;28;19988;-69
2021/12/08 14:45:37;;;;;;;;;;;;;;;;;;5071334;28;19938;-69
2021/12/08 14:48:07;;;;;;;;;;;;;;;;;;5084641;28;20079;-69
2021/12/08 14:50:36;;;;;;;;;;;;;;;;;;5088202;28;19924;-69
2021/12/08 14:53:08;;;;;;;;;;;;;;;;;;5086772;28;19924;-69
2021/12/08 14:55:38;;;;;;;;;;;;;;;;;;5087835;28;19924;-69
2021/12/08 14:58:07;;;;;;;;;;;;;;;;;;5084927;28;19942;-69
2021/12/08 15:00:35;;;;;;;;;;;;;;;;;;5084668;28;19928;-69
2021/12/08 15:03:10;;;;;;;;;;;;;;;;;;5089021;28;19928;-68
2021/12/08 15:05:55;;;;;;;;;;;;;;;;;;5087234;28;20030;-69
2021/12/08 15:08:26;;;;;;;;;;;;;;;;;;5088053;28;19936;-69
2021/12/08 15:10:59;;;;;;;;;;;;;;;;;;5088250;28;19928;-66
2021/12/08 15:13:28;;;;;;;;;;;;;;;;;;5084945;28;19946;-65
2021/12/08 15:15:58;;;;;;;;;;;;;;;;;;5086641;28;20030;-65
2021/12/08 15:18:27;;;;;;;;;;;;;;;;;;5085876;28;20451;-65
2021/12/08 15:21:10;;;;;;;;;;;;;;;;;;5086893;28;19927;-68
2021/12/08 15:23:49;;;;;;;;;;;;;;;;;;5086646;28;20000;-69
2021/12/08 15:26:24;;;;;;;;;;;;;;;;;;5085123;28;19928;-65
2021/12/08 15:28:55;;;;;;;;;;;;;;;;;;5085866;28;19924;-65
2021/12/08 15:31:24;;;;;;;;;;;;;;;;;;5078626;28;19935;-66
2021/12/08 15:33:54;;;;;;;;;;;;;;;;;;5085577;28;19940;-65
2021/12/08 15:36:22;;;;;;;;;;;;;;;;;;5091721;28;19983;-65
2021/12/08 15:38:52;;;;;;;;;;;;;;;;;;5076304;28;19932;-65
2021/12/08 15:41:22;;;;;;;;;;;;;;;;;;5094844;28;19920;-66
2021/12/08 15:43:52;;;;;;;;;;;;;;;;;;5092278;28;19928;-65
2021/12/08 15:46:23;;;;;;;;;;;;;;;;;;5082307;28;19928;-65
2021/12/08 15:48:53;;;;;;;;;;;;;;;;;;5087673;28;19936;-65
2021/12/08 15:51:30;;;;;;;;;;;;;;;;;;5080158;28;19928;-65
2021/12/08 15:54:04;;;;;;;;;;;;;;;;;;5080955;28;19940;-65
2021/12/08 15:56:51;;;;;;;;;;;;;;;;;;5077263;28;21309;-65
2021/12/08 15:59:23;;;;;;;;;;;;;;;;;;5083303;28;19924;-65
2021/12/08 16:01:57;;;;;;;;;;;;;;;;;;5080133;28;20337;-65
2021/12/08 16:04:31;;;;;;;;;;;;;;;;;;5086641;28;19927;-64
2021/12/08 16:07:02;;;;;;;;;;;;;;;;;;5085475;28;19980;-65
2021/12/08 16:09:33;;;;;;;;;;;;;;;;;;5086600;28;19973;-65
2021/12/08 16:12:03;;;;;;;;;;;;;;;;;;5081316;28;19928;-65
2021/12/08 16:14:32;;;;;;;;;;;;;;;;;;5090157;28;19928;-65
2021/12/08 16:17:03;;;;;;;;;;;;;;;;;;5083159;28;20053;-65
2021/12/08 16:19:32;;;;;;;;;;;;;;;;;;5087187;28;20357;-65
2021/12/08 16:22:04;;;;;;;;;;;;;;;;;;5079412;28;19928;-65
2021/12/08 16:24:33;;;;;;;;;;;;;;;;;;5087097;28;19924;-65
2021/12/08 16:27:01;;;;;;;;;;;;;;;;;;5083603;28;20409;-65
2021/12/08 16:29:32;;;;;;;;;;;;;;;;;;5089487;28;19932;-65
2021/12/08 16:32:05;;;;;;;;;;;;;;;;;;5084617;28;19924;-65
2021/12/08 16:34:38;;;;;;;;;;;;;;;;;;5080286;28;19924;-65
2021/12/08 16:37:09;;;;;;;;;;;;;;;;;;5081557;28;19933;-65
2021/12/08 16:39:55;;;;;;;;;;;;;;;;;;5081950;28;19989;-65
2021/12/08 16:45:13;;;;;;;;;;;;;;;;;;5090091;28;19935;-65
2021/12/08 16:47:42;;;;;;;;;;;;;;;;;;5086133;28;20032;-65
2021/12/08 16:50:15;;;;;;;;;;;;;;;;;;5074942;28;19939;-65
2021/12/08 16:52:44;;;;;;;;;;;;;;;;;;5083379;28;19939;-65
2021/12/08 16:55:14;;;;;;;;;;;;;;;;;;5086166;28;19936;-65
2021/12/08 16:57:47;;;;;;;;;;;;;;;;;;5084619;28;20497;-65
2021/12/08 17:00:17;;;;;;;;;;;;;;;;;;5083259;28;20068;-65
2021/12/08 17:02:46;;;;;;;;;;;;;;;;;;5077764;28;19988;-65
2021/12/08 17:05:15;;;;;;;;;;;;;;;;;;5077824;28;19932;-65
2021/12/08 17:07:46;;;;;;;;;;;;;;;;;;5084108;28;19924;-65
2021/12/08 17:10:15;;;;;;;;;;;;;;;;;;5081271;28;19928;-65
2021/12/08 17:12:45;;;;;;;;;;;;;;;;;;5083815;28;19928;-65
2021/12/08 17:15:16;;;;;;;;;;;;;;;;;;5078003;28;19927;-65
2021/12/08 17:17:47;;;;;;;;;;;;;;;;;;5084355;28;19928;-65
2021/12/08 17:20:17;;;;;;;;;;;;;;;;;;5082664;28;19973;-65
2021/12/08 17:22:45;;;;;;;;;;;;;;;;;;5086043;28;19935;-65
2021/12/08 17:25:18;;;;;;;;;;;;;;;;;;5082742;28;19924;-65
2021/12/08 17:27:47;;;;;;;;;;;;;;;;;;5079618;28;19940;-65
2021/12/08 17:30:20;;;;;;;;;;;;;;;;;;5078472;28;20824;-65
2021/12/08 17:32:51;;;;;;;;;;;;;;;;;;5082858;28;19932;-65
2021/12/08 17:35:21;;;;;;;;;;;;;;;;;;5075961;28;19981;-65
2021/12/08 17:37:51;;;;;;;;;;;;;;;;;;5065172;28;19928;-65
2021/12/08 17:40:33;;;;;;;;;;;;;;;;;;5047537;28;20469;-65
2021/12/08 17:43:03;;;;;;;;;;;;;;;;;;5064791;28;19932;-65
2021/12/08 17:45:42;;;;;;;;;;;;;;;;;;5064273;28;19939;-65
2021/12/08 17:48:10;;;;;;;;;;;;;;;;;;5060070;28;19928;-65
2021/12/08 17:50:41;;;;;;;;;;;;;;;;;;5058106;28;20269;-65
2021/12/08 17:53:09;;;;;;;;;;;;;;;;;;5060202;28;19924;-66
2021/12/08 17:55:37;;;;;;;;;;;;;;;;;;5061547;28;19936;-65
2021/12/08 17:58:06;;;;;;;;;;;;;;;;;;5060591;28;19981;-65
2021/12/08 18:00:36;;;;;;;;;;;;;;;;;;5044545;28;19925;-65
2021/12/08 18:03:06;;;;;;;;;;;;;;;;;;5053360;28;19982;-65
2021/12/08 18:05:46;;;;;;;;;;;;;;;;;;5066556;28;20643;-65